Pancas, Brazil
Current Conditions -  °F | °C
As of 3:00 AM on Thursday 23 Oct 2014 (Local Time) from SBVT Reporting Station
Broken Clouds Broken Clouds  
Wind Chill: 68°   Ceiling: 8000
Heat Index: 68°   Visibility: 6mi
Dew Point: 61°   Wind: 2mph
Humidity: 78%   Direction: 200°SSW
Pressure: 30.12"   Gusts: NA
Location:  19.23°S, 40.85°W
Report Text: SBVT 230500Z 20002KT 9999 SCT030 BKN080 20/16 Q1020
Loading
Personal Weather Stations






























Interactive Weather Map
Tropical Storm Tracking
New forecast layout! Learn more

10-Day Weather Forecast

Advertisements
Track Severe Weather on mobile